默认 日期 大小 文件数 浏览量 最新下载 xml
en 2022磁力链接相关资源由用户搜索指令自动获取,结果来源于网络,本站不存储任何资料,亦不承担任何责任,请于24小时内删除,搜索到1624个磁力,用时15ms。
    ... Forum.url": 377}, "Adobe.Photoshop.2022.v23.4.2.603.exe ...
创建时间: 2022-07-21 08:24:49 大小:1.94 GB 文件数量:6 热度:14 最近下载:2025-10-18 04:57:01
    ... .iso": 5911187456, "en-us_windows_10_business_editions_version_21h2_updated_july_2022_x86_dvd_c0cc3f68.iso": 4167075840, "en-us_windows_10_consumer_editions_version_21h2_updated_july_2022_x64_dvd_760f0749.iso": 6058559488 ...
创建时间: 2022-07-21 09:46:49 大小:19 GB 文件数量:4 热度:7 最近下载:2025-10-03 09:48:04
    {"Office ProPlus 2021 en-US x64 May 2022.exe": 1941597203}
创建时间: 2022-07-21 20:36:42 大小:1.81 GB 文件数量:1 热度:8 最近下载:2025-02-07 19:59:02
    {"Readme.txt": 245, "0. Websites you may like": {"1. Get Free Premium Accounts Daily On Our Discord Server!.txt": 1347, "3. FreeCoursesOnline.me Download Udacity, Masterclass, Lynda, PHLearn, etc Free.url": 290, "2. OneHack.us Premium Cracked Accounts- ...
创建时间: 2022-07-21 23:55:55 大小:4.39 GB 文件数量:6 热度:3 最近下载:2025-01-10 10:21:06
    {"rufus-3.19.exe": 1392712, "W10X64.PRO.ENU.JULY2022.ISO": 4674813952}
创建时间: 2022-07-22 18:00:50 大小:4.36 GB 文件数量:2 热度:4 最近下载:2025-01-20 23:13:09
    ... .Pro.21H2.19044.1826.x64.EN-US.July.2022.-=TeamOS=-.iso": 5302648832}
创建时间: 2022-07-22 19:07:36 大小:4.95 GB 文件数量:6 热度:6 最近下载:2025-03-12 11:45:03
    {"La.Vida.en.el.Silencio.2022.1080p-dual-lat.mp4": 3900362406, "Descargar Películas, Series y Animes Gratis....url": 50}
创建时间: 2022-07-23 19:43:34 大小:3.63 GB 文件数量:2 热度:8 最近下载:2025-09-12 15:55:02
    {"En Attendant Bojangles (2022).BDRip.1080p.10bit.HEVC.PlamenNik.mkv": 6712520890}
创建时间: 2022-07-23 21:00:42 大小:6.25 GB 文件数量:1 热度:9 最近下载:2025-09-15 08:52:02
    {"sample.mkv": 36808442, "En.Attendant.Bojangles.2022.1080p.BluRay.x265-DiN.mkv": 4505839730, "En.Attendant.Bojangles.2022.1080p.BluRay.x265-DiN.nfo": 2276}
创建时间: 2022-07-23 21:32:14 大小:4.23 GB 文件数量:3 热度:8 最近下载:2025-09-15 08:52:02
    {"en-us_windows_11_business_editions_version_21h2_updated_july_2022_x64_dvd_e2059dd9.iso": 5712369664, "en-us_windows_11_consumer_editions_version_21h2_updated_july_2022_x64_dvd_a9ae6b6a.iso": 5850976256}
创建时间: 2022-07-23 23:12:47 大小:10.77 GB 文件数量:2 热度:4 最近下载:2025-02-08 01:40:05
    ... ": 3340, "Adobe.Master.Collection.2022.v8.RU-EN.iso": 27863117824, "Adobe.Master ... .Collection.2022.v8.RU-EN.md5": 77, "Adobe.Master ... .Collection.2022.v8.RU-EN.sfv": 122, "Adobe.Master ...
创建时间: 2022-07-24 09:22:29 大小:25.96 GB 文件数量:9 热度:5 最近下载:2025-02-27 11:45:04
    {"cover.jpg": 416722, "08 JeanJass - S&L.flac": 31157082, "04 JeanJass - Je glisse.flac": 29247729, "01 JeanJass - Dans le mur.flac": 34193815, "05 JeanJass - Gratuitement.flac": 31836955, "07 JeanJass; Fuku - Le Six.flac": 31773572, "10 JeanJass - Premier ...
创建时间: 2022-07-24 15:52:21 大小:334.01 MB 文件数量:11 热度:3 最近下载:2025-02-25 01:17:05
    {"Sample.mkv": 7223357, "En.Attendant.Bojangles.2022.BDRip.x264.AAC-HUD.mkv": 1418858558, "En.Attendant.Bojangles.2022.BDRip.x264.AAC-HUD.nfo": 2498}
创建时间: 2022-07-24 16:08:33 大小:1.33 GB 文件数量:3 热度:6 最近下载:2025-09-15 08:52:02
    ... 3907027468, "Tour de France 2022 16 720p part 2.ts ... 4137182520, "Tour de France 2022 17 720p part 1.ts ... 3417778900, "Tour de France 2022 17 720p part 2.ts ... 2814566048, "Tour de France 2022 18 720p part 1.ts ... 3612547652, "Tour de France 2022 18 720p part 2.ts ...
创建时间: 2022-07-24 17:43:22 大小:20.08 GB 文件数量:6 热度:6 最近下载:2025-01-30 04:58:03
    ... 4118208620, "Tour de France 2022 11 720p part 2.ts ... 3719767812, "Tour de France 2022 12 720p part 1.ts ... 5085731256, "Tour de France 2022 12 720p part 2.ts ... 3764764672, "Tour de France 2022 13 720p part 1.ts ... 3648641584, "Tour de France 2022 13 720p part 2.ts ...
创建时间: 2022-07-24 23:35:36 大小:37.61 GB 文件数量:10 热度:7 最近下载:2025-02-11 10:01:49
    {"Code": {"lenslocked-xss.zip": 5076, "lenslocked-main.zip": 65065, "lenslocked-using_chi.zip": 4192, "lenslocked-fmt_errorf.zip": 10929, "lenslocked-go_modules.zip": 1147, "lenslocked-dynamic_faq.zip": 15464, "lenslocked-casts-master.zip": 2384, " ...
创建时间: 2022-07-25 06:38:53 大小:6.02 GB 文件数量:169 热度:4 最近下载:2025-01-21 21:29:08
    {"Readme.txt": 245, "0. Websites you may like": {"1. Get Free Premium Accounts Daily On Our Discord Server!.txt": 1347, "3. FreeCoursesOnline.me Download Udacity, Masterclass, Lynda, PHLearn, etc Free.url": 290, "2. OneHack.us Premium Cracked Accounts- ...
创建时间: 2022-07-25 08:25:53 大小:4.27 GB 文件数量:6 热度:13 最近下载:2025-07-12 15:36:01
    {"INFO": {"Info WPI.txt": 915, "My torrents.nfo": 135, "Windows 7 SP1 X64 Ultimate 3in1 OEM ESD en-US JULY 2022 {Gen2}.txt": 1659}, "EXTRAS": {"wpi.7z": 5352061, "Rufus USB-tool": {"Rufus 3.18.exe": 1380936}}, "WIN7X64.ULT.ENU.JULY2022.iso": 3128918016}
创建时间: 2022-07-25 17:27:58 大小:2.92 GB 文件数量:6 热度:4 最近下载:2025-10-12 14:08:02
    {"INFO": {"My torrents.nfo": 135, "Windows 11 X64 21H2 Pro 3in1 OEM ESD en-US JULY 2022 {Gen2}.txt": 1413}, "Rufus USB-tool": {"Rufus 3.18.exe": 1380936}, "WIN11.PRO.ENU.JULY2022.ISO": 4971692032}
创建时间: 2022-07-25 18:31:03 大小:4.63 GB 文件数量:4 热度:4 最近下载:2025-01-24 10:34:04
    ... .1618 X 32(ar En De Fr) Mart. 2022.rar": 3231955918, "win ... -10-19044.1618-x-32ar-en-de ... -10-19044.1618-x-32ar-en-de-fr-mart.-2022_meta.sqlite ...
创建时间: 2022-07-25 19:58:59 大小:3.02 GB 文件数量:6 热度:12 最近下载:2025-08-24 09:47:02